Time;durP1;ratioP1;P1;durP2;ratioP2;P2;SDS_P1;SDS_P2;PMS_P1;PMS_P2;Temp;Humidity;BMP_temperature;BMP_pressure;BME280_temperature;BME280_humidity;BME280_pressure;Samples;Min_cycle;Max_cycle;Signal;HPM_P1;HPM_P2
2022/09/16 00:00:01;;;;;;;4.55;1.25;;;;;;;;;;5013964;28;20037;-64
2022/09/16 00:02:27;;;;;;;2.83;1.00;;;;;;;;;;5031874;28;20032;-63
2022/09/16 00:04:53;;;;;;;3.70;0.93;;;;;;;;;;5030927;28;20026;-63
2022/09/16 00:07:19;;;;;;;3.47;0.90;;;;;;;;;;5029683;28;20025;-63
2022/09/16 00:09:45;;;;;;;1.85;0.88;;;;;;;;;;5031493;28;20029;-63
2022/09/16 00:12:11;;;;;;;4.38;1.15;;;;;;;;;;5031940;28;20029;-64
2022/09/16 00:14:37;;;;;;;2.40;1.08;;;;;;;;;;5031942;28;20033;-64
2022/09/16 00:17:03;;;;;;;4.65;1.50;;;;;;;;;;5031642;28;20092;-64
2022/09/16 00:19:29;;;;;;;4.45;1.80;;;;;;;;;;5030580;28;20042;-64
2022/09/16 00:21:55;;;;;;;3.72;1.15;;;;;;;;;;5011004;28;20511;-64
2022/09/16 00:24:21;;;;;;;4.03;1.27;;;;;;;;;;5031700;28;20021;-64
2022/09/16 00:26:47;;;;;;;2.33;0.60;;;;;;;;;;5031511;28;20055;-63
2022/09/16 00:29:13;;;;;;;5.07;1.05;;;;;;;;;;5013848;28;20060;-64
2022/09/16 00:31:39;;;;;;;6.65;1.02;;;;;;;;;;5029907;28;20037;-62
2022/09/16 00:34:05;;;;;;;2.50;0.93;;;;;;;;;;5031352;28;20080;-64
2022/09/16 00:36:31;;;;;;;2.70;0.95;;;;;;;;;;5029604;28;20451;-64
2022/09/16 00:38:57;;;;;;;4.43;1.50;;;;;;;;;;5028927;28;20075;-64
2022/09/16 00:41:25;;;;;;;7.05;1.20;;;;;;;;;;5031010;28;20040;-63
2022/09/16 00:43:55;;;;;;;5.00;1.10;;;;;;;;;;5031315;28;20584;-63
2022/09/16 00:46:42;;;;;;;3.45;1.15;;;;;;;;;;5030135;28;20028;-63
2022/09/16 00:49:12;;;;;;;3.90;1.20;;;;;;;;;;5032776;28;20067;-63
2022/09/16 00:51:39;;;;;;;3.10;1.13;;;;;;;;;;5027049;28;20098;-63
2022/09/16 00:54:08;;;;;;;4.70;1.10;;;;;;;;;;5030140;28;20036;-62
2022/09/16 00:56:36;;;;;;;5.07;1.00;;;;;;;;;;5013240;28;20497;-63
2022/09/16 00:59:02;;;;;;;2.72;1.30;;;;;;;;;;5030297;28;20025;-63
2022/09/16 01:01:29;;;;;;;4.32;1.20;;;;;;;;;;5030977;28;20025;-60
2022/09/16 01:03:59;;;;;;;1.95;0.73;;;;;;;;;;5030794;28;20029;-60
2022/09/16 01:06:26;;;;;;;2.20;1.02;;;;;;;;;;5030864;28;20026;-60
2022/09/16 01:08:52;;;;;;;1.92;1.00;;;;;;;;;;5013190;28;20036;-60
2022/09/16 01:11:18;;;;;;;4.45;1.13;;;;;;;;;;5030519;28;20031;-60
2022/09/16 01:13:44;;;;;;;4.57;1.95;;;;;;;;;;5029145;28;20037;-61
2022/09/16 01:16:14;;;;;;;6.50;2.33;;;;;;;;;;5030836;28;20029;-60
2022/09/16 01:18:48;;;;;;;3.83;1.67;;;;;;;;;;5030806;28;20049;-60
2022/09/16 01:21:17;;;;;;;4.35;1.40;;;;;;;;;;5030403;28;20370;-60
2022/09/16 01:23:54;;;;;;;2.72;1.00;;;;;;;;;;5030273;28;20025;-60
2022/09/16 01:26:39;;;;;;;2.45;1.05;;;;;;;;;;5030032;28;20033;-61
2022/09/16 01:29:26;;;;;;;2.75;1.10;;;;;;;;;;5030831;28;20481;-60
2022/09/16 01:32:12;;;;;;;5.95;1.30;;;;;;;;;;5029221;28;20030;-60
2022/09/16 01:34:45;;;;;;;4.38;1.10;;;;;;;;;;5030605;28;20033;-61
2022/09/16 01:37:11;;;;;;;;;;;;;;;;;;5031034;28;20077;-60
2022/09/16 01:39:50;;;;;;;1.85;1.00;;;;;;;;;;5030495;28;20376;-61
2022/09/16 01:42:34;;;;;;;2.20;1.00;;;;;;;;;;5029908;28;20068;-60
2022/09/16 01:45:07;;;;;;;5.50;1.23;;;;;;;;;;5018538;28;20025;-60
2022/09/16 01:47:37;;;;;;;4.68;1.35;;;;;;;;;;5030735;28;20033;-60
2022/09/16 01:50:08;;;;;;;7.18;1.50;;;;;;;;;;5030538;28;20037;-61
2022/09/16 01:52:49;;;;;;;1.55;1.05;;;;;;;;;;5028166;28;20065;-60
2022/09/16 01:55:19;;;;;;;2.53;1.25;;;;;;;;;;5012805;28;20054;-60
2022/09/16 01:57:55;;;;;;;6.38;1.48;;;;;;;;;;5030362;28;20025;-61
2022/09/16 02:00:22;;;;;;;5.00;1.73;;;;;;;;;;5030028;28;20468;-60
2022/09/16 02:02:55;;;;;;;10.27;1.70;;;;;;;;;;5030535;28;20132;-60
2022/09/16 02:05:24;;;;;;;3.00;1.30;;;;;;;;;;5033370;28;20022;-60
2022/09/16 02:07:53;;;;;;;9.88;2.00;;;;;;;;;;5033728;28;20128;-60
2022/09/16 02:10:22;;;;;;;3.88;1.23;;;;;;;;;;5033560;28;20037;-61
2022/09/16 02:12:50;;;;;;;5.13;1.42;;;;;;;;;;5033040;28;20108;-61
2022/09/16 02:15:21;;;;;;;3.72;1.60;;;;;;;;;;5034009;28;20417;-60
2022/09/16 02:17:48;;;;;;;4.53;1.55;;;;;;;;;;5033835;28;20033;-61
2022/09/16 02:20:17;;;;;;;6.35;1.70;;;;;;;;;;5030429;28;20041;-61
2022/09/16 02:22:44;;;;;;;3.30;1.27;;;;;;;;;;5024412;28;20084;-60
2022/09/16 02:25:12;;;;;;;5.13;1.83;;;;;;;;;;5033752;28;20030;-61
2022/09/16 02:27:40;;;;;;;2.53;1.42;;;;;;;;;;5033919;28;20575;-61
2022/09/16 02:30:09;;;;;;;4.75;1.35;;;;;;;;;;5033147;28;20051;-61
2022/09/16 02:32:36;;;;;;;4.20;1.80;;;;;;;;;;5032622;28;20485;-61
2022/09/16 02:35:03;;;;;;;5.15;1.90;;;;;;;;;;5033556;28;20025;-61
2022/09/16 02:37:33;;;;;;;4.65;1.60;;;;;;;;;;5033615;28;20061;-61
2022/09/16 02:40:04;;;;;;;4.38;1.63;;;;;;;;;;5033205;28;20041;-61
2022/09/16 02:42:30;;;;;;;6.28;1.90;;;;;;;;;;5033568;28;20715;-60
2022/09/16 02:44:57;;;;;;;5.43;1.88;;;;;;;;;;5032191;28;20031;-60
2022/09/16 02:47:30;;;;;;;4.18;1.90;;;;;;;;;;5032558;28;20025;-61
2022/09/16 02:50:13;;;;;;;10.10;2.00;;;;;;;;;;5032964;28;20076;-61
2022/09/16 02:52:58;;;;;;;10.48;2.05;;;;;;;;;;5032971;28;20033;-60
2022/09/16 02:55:24;;;;;;;5.13;1.67;;;;;;;;;;5032817;28;20025;-61
2022/09/16 02:57:50;;;;;;;4.47;1.98;;;;;;;;;;5033228;28;20105;-61
2022/09/16 03:00:16;;;;;;;3.55;1.60;;;;;;;;;;5032730;28;20500;-60
2022/09/16 03:02:42;;;;;;;7.40;1.50;;;;;;;;;;5032362;28;20029;-61
2022/09/16 03:05:08;;;;;;;10.30;2.53;;;;;;;;;;5032998;28;20025;-61
2022/09/16 03:07:35;;;;;;;8.10;1.67;;;;;;;;;;5032513;28;20037;-60
2022/09/16 03:10:02;;;;;;;6.68;2.00;;;;;;;;;;5032421;28;20025;-60
2022/09/16 03:12:38;;;;;;;8.25;2.15;;;;;;;;;;5033066;28;20021;-61
2022/09/16 03:15:21;;;;;;;4.88;2.00;;;;;;;;;;5032744;28;20489;-61
2022/09/16 03:17:59;;;;;;;5.10;2.20;;;;;;;;;;5032007;28;20025;-61
2022/09/16 03:20:31;;;;;;;4.03;2.22;;;;;;;;;;5019940;28;20033;-61
2022/09/16 03:23:16;;;;;;;4.85;1.98;;;;;;;;;;5032426;28;20507;-61
2022/09/16 03:25:46;;;;;;;8.13;1.90;;;;;;;;;;5032694;28;20033;-61
2022/09/16 03:28:15;;;;;;;3.08;1.70;;;;;;;;;;5032793;28;20033;-61
2022/09/16 03:31:02;;;;;;;3.13;1.80;;;;;;;;;;5032009;28;20116;-61
2022/09/16 03:33:34;;;;;;;4.80;1.85;;;;;;;;;;5011270;28;20037;-60
2022/09/16 03:36:02;;;;;;;5.22;2.38;;;;;;;;;;5031451;28;20033;-61
2022/09/16 03:38:29;;;;;;;6.68;1.75;;;;;;;;;;5023130;28;20026;-61
2022/09/16 03:40:56;;;;;;;5.63;2.42;;;;;;;;;;5031888;28;20034;-61
2022/09/16 03:43:22;;;;;;;6.85;2.17;;;;;;;;;;5032129;28;20531;-61
2022/09/16 03:45:48;;;;;;;7.40;2.20;;;;;;;;;;5032087;28;20029;-61
2022/09/16 03:48:13;;;;;;;4.70;2.13;;;;;;;;;;5031488;28;20105;-61
2022/09/16 03:50:40;;;;;;;13.50;2.78;;;;;;;;;;5013980;28;20025;-67
2022/09/16 03:53:06;;;;;;;7.38;2.25;;;;;;;;;;5031898;28;20060;-61
2022/09/16 03:55:32;;;;;;;7.40;2.03;;;;;;;;;;5031158;28;20025;-61
2022/09/16 03:57:57;;;;;;;7.78;2.45;;;;;;;;;;5018566;28;20052;-61
2022/09/16 04:00:23;;;;;;;9.00;2.50;;;;;;;;;;5031995;28;20112;-61
2022/09/16 04:02:49;;;;;;;5.85;2.47;;;;;;;;;;5031007;28;20096;-61
2022/09/16 04:05:16;;;;;;;3.72;2.17;;;;;;;;;;5031136;28;20038;-61
2022/09/16 04:07:42;;;;;;;6.65;1.80;;;;;;;;;;5029095;28;20033;-61
2022/09/16 04:10:11;;;;;;;4.40;1.75;;;;;;;;;;5027957;28;20405;-61
2022/09/16 04:12:37;;;;;;;5.65;2.00;;;;;;;;;;5030882;28;20072;-61
2022/09/16 04:15:03;;;;;;;3.63;2.05;;;;;;;;;;5009719;28;20021;-60
2022/09/16 04:17:31;;;;;;;8.15;2.25;;;;;;;;;;5030831;28;20104;-61
2022/09/16 04:19:57;;;;;;;6.63;2.10;;;;;;;;;;5031451;28;20116;-61
2022/09/16 04:22:23;;;;;;;5.60;1.92;;;;;;;;;;5028360;28;20032;-61
2022/09/16 04:24:49;;;;;;;5.93;1.85;;;;;;;;;;5022697;28;20448;-61
2022/09/16 04:27:15;;;;;;;6.35;2.17;;;;;;;;;;5023421;28;20060;-61
2022/09/16 04:29:41;;;;;;;6.57;2.30;;;;;;;;;;5030714;28;20021;-61
2022/09/16 04:32:07;;;;;;;3.72;1.80;;;;;;;;;;5025428;28;20543;-61
2022/09/16 04:34:33;;;;;;;7.63;2.28;;;;;;;;;;5031560;28;20025;-61
2022/09/16 04:36:59;;;;;;;3.85;1.90;;;;;;;;;;5030444;28;20030;-61
2022/09/16 04:39:25;;;;;;;4.82;2.20;;;;;;;;;;5030326;28;20044;-61
2022/09/16 04:41:51;;;;;;;4.45;1.83;;;;;;;;;;5031030;28;20033;-61
2022/09/16 04:44:17;;;;;;;5.88;1.98;;;;;;;;;;5030550;28;20045;-61
2022/09/16 04:46:43;;;;;;;5.32;1.83;;;;;;;;;;5031431;28;20033;-61
2022/09/16 04:49:11;;;;;;;4.20;1.90;;;;;;;;;;5030003;28;20029;-61
2022/09/16 04:51:37;;;;;;;4.80;1.88;;;;;;;;;;5028584;28;20490;-61
2022/09/16 04:54:03;;;;;;;8.90;2.40;;;;;;;;;;5028894;28;20028;-61
2022/09/16 04:56:30;;;;;;;5.35;2.20;;;;;;;;;;5029069;28;20508;-61
2022/09/16 04:58:58;;;;;;;5.22;1.90;;;;;;;;;;5030156;28;20028;-61
2022/09/16 05:01:26;;;;;;;2.70;1.58;;;;;;;;;;5022951;28;20034;-61
2022/09/16 05:03:53;;;;;;;5.40;2.08;;;;;;;;;;5031129;28;20025;-61
2022/09/16 05:06:20;;;;;;;5.15;1.80;;;;;;;;;;5031183;28;20108;-60
2022/09/16 05:08:46;;;;;;;11.52;2.22;;;;;;;;;;5028818;28;20452;-61
2022/09/16 05:11:13;;;;;;;7.70;1.98;;;;;;;;;;5013158;28;20034;-61
2022/09/16 05:13:40;;;;;;;5.45;2.00;;;;;;;;;;5029255;28;20105;-61
2022/09/16 05:16:07;;;;;;;2.63;1.63;;;;;;;;;;5010196;28;20026;-61
2022/09/16 05:18:34;;;;;;;7.35;2.00;;;;;;;;;;5030003;28;20319;-61
2022/09/16 05:21:01;;;;;;;9.45;1.50;;;;;;;;;;5030846;28;20025;-60
2022/09/16 05:23:27;;;;;;;4.32;1.50;;;;;;;;;;5029634;28;20438;-61
2022/09/16 05:25:53;;;;;;;3.70;1.50;;;;;;;;;;5028808;28;20049;-61
2022/09/16 05:28:19;;;;;;;9.00;1.85;;;;;;;;;;5023126;28;20026;-61
2022/09/16 05:30:45;;;;;;;8.38;1.88;;;;;;;;;;5030093;28;20128;-61
2022/09/16 05:33:11;;;;;;;6.18;2.08;;;;;;;;;;5026010;28;20025;-61
2022/09/16 05:35:38;;;;;;;4.53;1.92;;;;;;;;;;5026879;28;20083;-60
2022/09/16 05:38:03;;;;;;;6.00;1.95;;;;;;;;;;5030848;28;20108;-61
2022/09/16 05:40:29;;;;;;;9.20;2.00;;;;;;;;;;5033358;28;20108;-61
2022/09/16 05:42:55;;;;;;;5.85;1.65;;;;;;;;;;5032264;28;20033;-61
2022/09/16 05:45:21;;;;;;;6.10;2.40;;;;;;;;;;5033484;28;20099;-60
2022/09/16 05:47:48;;;;;;;11.65;1.92;;;;;;;;;;5034537;28;20034;-60
2022/09/16 05:50:14;;;;;;;6.20;2.28;;;;;;;;;;5026869;28;20396;-61
2022/09/16 05:52:40;;;;;;;3.65;1.58;;;;;;;;;;5028006;28;20040;-61
2022/09/16 05:55:06;;;;;;;9.55;1.92;;;;;;;;;;5030433;28;20025;-61
2022/09/16 05:57:32;;;;;;;7.15;2.03;;;;;;;;;;5033400;28;20090;-61
2022/09/16 05:59:58;;;;;;;5.63;1.67;;;;;;;;;;5032225;28;20018;-60
2022/09/16 06:02:24;;;;;;;7.43;1.77;;;;;;;;;;5031131;28;20028;-61
2022/09/16 06:04:50;;;;;;;8.32;2.13;;;;;;;;;;5033239;28;20029;-60
2022/09/16 06:07:16;;;;;;;4.63;1.90;;;;;;;;;;5028463;28;20029;-60
2022/09/16 06:09:42;;;;;;;5.53;1.60;;;;;;;;;;5029907;28;20116;-61
2022/09/16 06:12:09;;;;;;;6.97;1.90;;;;;;;;;;5019012;28;20097;-61
2022/09/16 06:14:35;;;;;;;9.02;2.47;;;;;;;;;;5024870;28;20473;-61
2022/09/16 06:17:02;;;;;;;7.85;1.98;;;;;;;;;;5034111;28;20537;-60
2022/09/16 06:19:28;;;;;;;4.85;1.63;;;;;;;;;;5031799;28;20037;-61
2022/09/16 06:21:54;;;;;;;8.48;1.95;;;;;;;;;;5031935;28;20481;-61
2022/09/16 06:24:20;;;;;;;5.97;2.13;;;;;;;;;;5033801;28;20129;-61
2022/09/16 06:26:47;;;;;;;4.03;1.73;;;;;;;;;;5014359;28;20026;-60
2022/09/16 06:29:13;;;;;;;4.97;1.90;;;;;;;;;;5033131;28;20033;-61
2022/09/16 06:31:39;;;;;;;6.03;1.90;;;;;;;;;;5033404;28;20033;-60
2022/09/16 06:34:06;;;;;;;5.30;1.70;;;;;;;;;;5026514;28;20031;-60
2022/09/16 06:36:33;;;;;;;4.85;2.08;;;;;;;;;;5015838;28;20527;-61
2022/09/16 06:38:59;;;;;;;7.50;2.10;;;;;;;;;;5031014;28;20550;-61
2022/09/16 06:41:25;;;;;;;5.63;1.95;;;;;;;;;;5015271;28;20033;-61
2022/09/16 06:43:51;;;;;;;4.97;2.35;;;;;;;;;;5013571;28;20044;-60
2022/09/16 06:46:19;;;;;;;6.30;2.05;;;;;;;;;;5021869;28;20599;-61
2022/09/16 06:48:47;;;;;;;6.18;2.08;;;;;;;;;;5029286;28;20067;-61
2022/09/16 06:51:14;;;;;;;6.60;2.08;;;;;;;;;;5029612;28;21031;-61
2022/09/16 06:53:40;;;;;;;5.18;1.80;;;;;;;;;;5029692;28;20033;-61
2022/09/16 06:56:09;;;;;;;3.15;1.50;;;;;;;;;;5030323;28;20079;-61
2022/09/16 06:58:36;;;;;;;7.88;2.30;;;;;;;;;;5031089;28;20060;-61
2022/09/16 07:01:06;;;;;;;8.82;2.40;;;;;;;;;;5028868;28;20029;-61
2022/09/16 07:03:32;;;;;;;6.63;2.30;;;;;;;;;;5021507;28;20045;-61
2022/09/16 07:06:00;;;;;;;7.00;2.53;;;;;;;;;;5031415;28;20030;-61
2022/09/16 07:08:27;;;;;;;7.22;1.95;;;;;;;;;;5028822;28;20025;-61
2022/09/16 07:10:57;;;;;;;6.57;1.58;;;;;;;;;;5029019;28;20038;-61
2022/09/16 07:13:24;;;;;;;6.82;1.70;;;;;;;;;;5029202;28;20025;-61
2022/09/16 07:15:50;;;;;;;4.93;1.20;;;;;;;;;;5025218;28;20025;-61
2022/09/16 07:18:16;;;;;;;5.55;1.95;;;;;;;;;;5031194;28;20037;-61
2022/09/16 07:20:42;;;;;;;7.10;1.65;;;;;;;;;;5032703;28;20100;-61
2022/09/16 07:23:08;;;;;;;4.95;1.63;;;;;;;;;;5032733;28;20040;-61
2022/09/16 07:25:34;;;;;;;6.47;1.30;;;;;;;;;;5015159;28;20551;-61
2022/09/16 07:28:00;;;;;;;9.02;1.35;;;;;;;;;;5031161;28;20017;-61
2022/09/16 07:30:28;;;;;;;6.95;1.38;;;;;;;;;;5030310;28;20087;-61
2022/09/16 07:32:54;;;;;;;9.02;1.60;;;;;;;;;;5031098;28;20413;-61
2022/09/16 07:35:20;;;;;;;5.18;1.30;;;;;;;;;;5029458;28;20056;-61
2022/09/16 07:37:47;;;;;;;6.90;1.10;;;;;;;;;;5032786;28;20022;-61
2022/09/16 07:40:13;;;;;;;2.85;0.90;;;;;;;;;;5032094;28;20495;-60
2022/09/16 07:42:39;;;;;;;6.95;1.02;;;;;;;;;;5032312;28;20101;-61
2022/09/16 07:45:05;;;;;;;5.72;1.05;;;;;;;;;;5032120;28;20036;-61
2022/09/16 07:47:31;;;;;;;7.38;1.10;;;;;;;;;;5032384;28;20480;-60
2022/09/16 07:49:58;;;;;;;5.20;1.25;;;;;;;;;;5031897;28;20021;-60
2022/09/16 07:52:28;;;;;;;4.38;1.08;;;;;;;;;;5012872;28;20056;-61
2022/09/16 07:54:57;;;;;;;4.40;1.42;;;;;;;;;;5030888;28;20029;-61
2022/09/16 07:57:23;;;;;;;3.47;1.25;;;;;;;;;;5032012;28;20132;-60
2022/09/16 07:59:50;;;;;;;3.85;0.90;;;;;;;;;;5031731;28;20022;-61
2022/09/16 08:02:16;;;;;;;6.38;1.33;;;;;;;;;;5031030;28;20040;-61
2022/09/16 08:04:42;;;;;;;2.67;1.00;;;;;;;;;;5032058;28;20544;-61
2022/09/16 08:07:08;;;;;;;4.53;1.40;;;;;;;;;;5031924;28;20076;-60
2022/09/16 08:09:36;;;;;;;2.35;0.90;;;;;;;;;;5031929;28;20496;-61
2022/09/16 08:12:03;;;;;;;4.65;1.40;;;;;;;;;;5028798;28;20457;-61
2022/09/16 08:14:29;;;;;;;6.22;2.38;;;;;;;;;;5031932;28;20373;-61
2022/09/16 08:16:55;;;;;;;3.85;1.52;;;;;;;;;;5031743;28;20033;-60
2022/09/16 08:19:22;;;;;;;6.05;1.35;;;;;;;;;;5031548;28;20037;-61
2022/09/16 08:21:48;;;;;;;6.63;1.20;;;;;;;;;;5031228;28;20051;-60
2022/09/16 08:24:15;;;;;;;6.18;2.30;;;;;;;;;;5030286;28;20037;-61
2022/09/16 08:26:41;;;;;;;1.73;0.95;;;;;;;;;;5031537;28;20026;-60
2022/09/16 08:29:07;;;;;;;6.82;0.90;;;;;;;;;;5031669;28;20045;-60
2022/09/16 08:31:33;;;;;;;5.88;0.80;;;;;;;;;;5031066;28;20102;-61
2022/09/16 08:33:59;;;;;;;4.45;1.27;;;;;;;;;;5031524;28;20108;-61
2022/09/16 08:36:25;;;;;;;6.55;1.00;;;;;;;;;;5030674;28;20075;-61
2022/09/16 08:38:52;;;;;;;8.95;0.85;;;;;;;;;;5029367;28;20100;-61
2022/09/16 08:41:23;;;;;;;4.00;0.98;;;;;;;;;;5030969;28;20099;-61
2022/09/16 08:43:54;;;;;;;4.60;1.10;;;;;;;;;;5031334;28;20106;-61
2022/09/16 08:46:35;;;;;;;6.97;0.95;;;;;;;;;;5031472;28;20486;-60
2022/09/16 08:49:25;;;;;;;8.02;1.80;;;;;;;;;;5030585;28;20507;-61
2022/09/16 08:51:51;;;;;;;6.82;1.17;;;;;;;;;;5020876;28;20029;-61
2022/09/16 08:54:24;;;;;;;4.43;1.13;;;;;;;;;;5030557;28;20106;-61
2022/09/16 08:56:50;;;;;;;6.77;1.33;;;;;;;;;;5031452;28;20036;-61
2022/09/16 08:59:19;;;;;;;4.88;0.80;;;;;;;;;;5030196;28;20366;-61
2022/09/16 09:01:51;;;;;;;10.18;0.90;;;;;;;;;;5030901;28;20127;-61
2022/09/16 09:04:17;;;;;;;7.47;1.85;;;;;;;;;;5030990;28;20029;-61
2022/09/16 09:06:55;;;;;;;3.95;1.02;;;;;;;;;;5031234;28;20034;-60
2022/09/16 09:09:39;;;;;;;4.50;1.20;;;;;;;;;;5031337;28;20500;-60
2022/09/16 09:12:09;;;;;;;2.85;0.82;;;;;;;;;;5023509;28;20544;-60
2022/09/16 09:15:00;;;;;;;4.20;0.90;;;;;;;;;;5037465;28;20036;-61
2022/09/16 09:17:37;;;;;;;6.80;1.00;;;;;;;;;;5036540;28;20033;-60
2022/09/16 09:20:05;;;;;;;4.57;1.00;;;;;;;;;;5019594;28;20102;-61
2022/09/16 09:22:46;;;;;;;6.72;0.60;;;;;;;;;;5037599;28;20040;-61
2022/09/16 09:25:26;;;;;;;7.85;1.13;;;;;;;;;;5037548;28;20111;-61
2022/09/16 09:28:07;;;;;;;4.82;0.80;;;;;;;;;;5036382;28;20025;-62
2022/09/16 09:30:34;;;;;;;4.95;0.75;;;;;;;;;;5037083;28;20389;-61
2022/09/16 09:33:09;;;;;;;9.45;1.42;;;;;;;;;;5037479;28;20480;-61
2022/09/16 09:35:46;;;;;;;4.00;0.90;;;;;;;;;;5037266;28;20053;-61
2022/09/16 09:38:14;;;;;;;2.95;0.90;;;;;;;;;;5037521;28;20437;-61
2022/09/16 09:40:43;;;;;;;6.85;1.40;;;;;;;;;;5036870;28;20112;-61
2022/09/16 09:43:15;;;;;;;8.25;0.98;;;;;;;;;;5035911;28;20118;-61
2022/09/16 09:45:53;;;;;;;6.27;1.13;;;;;;;;;;5037200;28;20120;-60
2022/09/16 09:48:29;;;;;;;6.32;1.23;;;;;;;;;;5037428;28;20388;-61
2022/09/16 09:50:57;;;;;;;6.47;1.45;;;;;;;;;;5037124;28;20025;-61
2022/09/16 09:53:28;;;;;;;10.55;1.20;;;;;;;;;;5037478;28;20052;-61
2022/09/16 09:55:58;;;;;;;7.25;1.05;;;;;;;;;;5037413;28;20017;-61
2022/09/16 09:58:33;;;;;;;6.40;1.00;;;;;;;;;;5037289;28;20096;-60
2022/09/16 10:01:00;;;;;;;4.88;0.90;;;;;;;;;;5035688;28;20067;-61
2022/09/16 10:03:26;;;;;;;6.30;1.00;;;;;;;;;;5037578;28;20026;-61
2022/09/16 10:05:52;;;;;;;8.60;0.70;;;;;;;;;;5037263;28;20029;-61
2022/09/16 10:08:28;;;;;;;7.20;1.05;;;;;;;;;;5037355;28;20432;-60
2022/09/16 10:10:59;;;;;;;5.80;1.00;;;;;;;;;;5036625;28;20515;-61
2022/09/16 10:13:25;;;;;;;3.25;0.73;;;;;;;;;;5037570;28;20026;-60
2022/09/16 10:16:05;;;;;;;8.10;0.93;;;;;;;;;;5036321;28;20026;-60
2022/09/16 10:18:32;;;;;;;8.23;0.90;;;;;;;;;;5035559;28;20107;-60
2022/09/16 10:21:06;;;;;;;3.80;0.90;;;;;;;;;;5036624;28;20025;-61
2022/09/16 10:23:33;;;;;;;2.00;0.63;;;;;;;;;;5037036;28;20025;-61
2022/09/16 10:26:07;;;;;;;4.95;1.17;;;;;;;;;;5032164;28;20437;-60
2022/09/16 10:28:33;;;;;;;2.95;0.80;;;;;;;;;;5034133;28;20033;-61
2022/09/16 10:31:00;;;;;;;12.38;1.35;;;;;;;;;;5031485;28;20061;-60
2022/09/16 10:33:35;;;;;;;2.72;0.75;;;;;;;;;;5033188;28;20057;-60
2022/09/16 10:36:03;;;;;;;7.28;0.80;;;;;;;;;;5013365;28;20565;-60
2022/09/16 10:38:35;;;;;;;8.65;0.73;;;;;;;;;;5030468;28;20029;-60
2022/09/16 10:41:05;;;;;;;5.57;0.85;;;;;;;;;;5032730;28;20036;-60
2022/09/16 10:43:31;;;;;;;3.35;0.80;;;;;;;;;;5031524;28;20081;-60
2022/09/16 10:45:57;;;;;;;4.63;0.80;;;;;;;;;;5028763;28;20059;-61
2022/09/16 10:48:25;;;;;;;5.45;0.70;;;;;;;;;;5029268;28;20191;-61
2022/09/16 10:50:55;;;;;;;7.45;0.93;;;;;;;;;;5027005;28;20440;-61
2022/09/16 10:53:23;;;;;;;5.03;0.75;;;;;;;;;;5031173;28;20029;-61
2022/09/16 10:56:03;;;;;;;4.57;0.80;;;;;;;;;;5036315;28;20021;-61
2022/09/16 10:58:29;;;;;;;5.03;0.63;;;;;;;;;;5029230;28;20479;-61
2022/09/16 11:00:58;;;;;;;8.38;1.08;;;;;;;;;;5026399;28;20392;-60
2022/09/16 11:03:42;;;;;;;6.03;1.02;;;;;;;;;;5029110;28;20508;-60
2022/09/16 11:06:23;;;;;;;5.03;1.25;;;;;;;;;;5028347;28;20112;-60
2022/09/16 11:08:55;;;;;;;4.10;0.55;;;;;;;;;;5030679;28;20218;-60
2022/09/16 11:11:39;;;;;;;6.32;0.80;;;;;;;;;;5027009;28;21918;-61
2022/09/16 11:14:16;;;;;;;3.03;0.65;;;;;;;;;;5028760;28;20108;-60
2022/09/16 11:17:00;;;;;;;6.97;0.63;;;;;;;;;;5031885;28;20030;-61
2022/09/16 11:19:45;;;;;;;6.75;0.70;;;;;;;;;;5033003;28;20049;-60
2022/09/16 11:22:16;;;;;;;2.92;0.73;;;;;;;;;;5021540;28;20083;-61
2022/09/16 11:24:47;;;;;;;3.20;0.55;;;;;;;;;;5032850;28;20029;-60
2022/09/16 11:27:23;;;;;;;3.72;0.77;;;;;;;;;;5032208;28;20028;-61
2022/09/16 11:29:50;;;;;;;7.70;0.60;;;;;;;;;;5031711;28;20091;-60
2022/09/16 11:32:22;;;;;;;4.05;0.70;;;;;;;;;;5032553;28;20413;-60
2022/09/16 11:35:02;;;;;;;7.20;1.23;;;;;;;;;;5032142;28;20025;-60
2022/09/16 11:37:43;;;;;;;5.95;0.98;;;;;;;;;;5030187;28;20021;-60
2022/09/16 11:40:09;;;;;;;3.42;0.60;;;;;;;;;;5032529;28;20029;-60
2022/09/16 11:42:41;;;;;;;3.90;0.80;;;;;;;;;;5021686;28;20037;-61
2022/09/16 11:45:16;;;;;;;4.20;0.70;;;;;;;;;;5015765;28;20540;-60
2022/09/16 11:48:02;;;;;;;8.85;1.40;;;;;;;;;;5021007;28;20033;-60
2022/09/16 11:50:40;;;;;;;4.05;0.60;;;;;;;;;;5031888;28;20033;-60
2022/09/16 11:53:18;;;;;;;3.63;0.77;;;;;;;;;;5032236;28;20025;-60
2022/09/16 11:56:03;;;;;;;7.97;1.05;;;;;;;;;;5021660;28;20037;-61
2022/09/16 11:58:39;;;;;;;3.83;0.50;;;;;;;;;;5029433;28;20511;-60
2022/09/16 12:01:23;;;;;;;2.72;0.63;;;;;;;;;;5030739;28;20096;-60
2022/09/16 12:03:55;;;;;;;10.98;0.88;;;;;;;;;;5024545;28;20041;-60
2022/09/16 12:06:24;;;;;;;4.18;0.60;;;;;;;;;;5031043;28;20112;-60
2022/09/16 12:08:53;;;;;;;2.58;0.52;;;;;;;;;;5011242;28;20037;-62
2022/09/16 12:11:22;;;;;;;4.97;0.70;;;;;;;;;;5029880;28;20034;-61
2022/09/16 12:13:54;;;;;;;3.60;0.52;;;;;;;;;;5032089;28;20030;-61
2022/09/16 12:16:26;;;;;;;6.60;0.77;;;;;;;;;;5030238;28;20040;-60
2022/09/16 12:18:55;;;;;;;9.57;0.77;;;;;;;;;;5029884;28;20124;-61
2022/09/16 12:21:24;;;;;;;6.13;0.60;;;;;;;;;;5028404;28;20034;-59
2022/09/16 12:23:53;;;;;;;3.08;0.50;;;;;;;;;;5031927;28;20029;-59
2022/09/16 12:26:21;;;;;;;6.97;0.75;;;;;;;;;;5030268;28;20033;-61
2022/09/16 12:29:01;;;;;;;3.47;0.63;;;;;;;;;;5014179;28;20025;-59
2022/09/16 12:31:33;;;;;;;2.42;0.68;;;;;;;;;;5030175;28;20480;-61
2022/09/16 12:34:04;;;;;;;6.55;0.60;;;;;;;;;;5029375;28;20040;-61
2022/09/16 12:36:31;;;;;;;5.68;0.63;;;;;;;;;;5020895;28;20497;-61
2022/09/16 12:39:00;;;;;;;3.25;0.60;;;;;;;;;;5029773;28;20048;-61
2022/09/16 12:41:35;;;;;;;4.95;0.82;;;;;;;;;;5022530;28;20029;-61
2022/09/16 12:44:01;;;;;;;3.22;0.73;;;;;;;;;;5020121;28;20392;-62
2022/09/16 12:46:35;;;;;;;3.20;0.65;;;;;;;;;;5023435;28;20044;-61
2022/09/16 12:49:04;;;;;;;4.13;0.47;;;;;;;;;;5011862;28;20024;-62
2022/09/16 12:51:49;;;;;;;3.20;0.57;;;;;;;;;;5028638;28;20029;-59
2022/09/16 12:54:18;;;;;;;4.57;0.70;;;;;;;;;;5023913;28;20026;-60
2022/09/16 12:56:50;;;;;;;3.55;0.47;;;;;;;;;;5024686;28;20477;-59
2022/09/16 12:59:23;;;;;;;6.10;0.70;;;;;;;;;;5027683;28;20022;-59
2022/09/16 13:01:51;;;;;;;2.25;0.65;;;;;;;;;;5027427;28;20048;-59
2022/09/16 13:04:19;;;;;;;4.60;0.63;;;;;;;;;;5028849;28;20476;-59
2022/09/16 13:06:47;;;;;;;3.28;0.60;;;;;;;;;;5027844;28;20116;-58
2022/09/16 13:09:15;;;;;;;4.90;0.73;;;;;;;;;;5028323;28;20112;-60
2022/09/16 13:11:41;;;;;;;6.68;0.95;;;;;;;;;;5029429;28;20033;-60
2022/09/16 13:14:19;;;;;;;4.13;0.70;;;;;;;;;;5022529;28;20022;-61
2022/09/16 13:16:51;;;;;;;2.00;0.80;;;;;;;;;;5019443;28;20579;-61
2022/09/16 13:19:26;;;;;;;1.13;0.40;;;;;;;;;;5024141;28;20034;-59
2022/09/16 13:22:13;;;;;;;2.53;0.50;;;;;;;;;;5027337;28;20038;-61
2022/09/16 13:24:42;;;;;;;1.52;0.50;;;;;;;;;;5025058;28;20572;-60
2022/09/16 13:27:28;;;;;;;7.10;1.00;;;;;;;;;;5029023;28;20128;-60
2022/09/16 13:30:10;;;;;;;8.57;0.55;;;;;;;;;;5027544;28;20029;-61
2022/09/16 13:32:44;;;;;;;6.32;0.60;;;;;;;;;;5025450;28;20033;-61
2022/09/16 13:35:19;;;;;;;2.50;0.35;;;;;;;;;;5026977;28;20052;-59
2022/09/16 13:37:46;;;;;;;4.78;1.23;;;;;;;;;;5021766;28;20033;-59
2022/09/16 13:40:21;;;;;;;2.35;0.70;;;;;;;;;;5024076;28;20080;-59
2022/09/16 13:42:47;;;;;;;18.13;6.80;;;;;;;;;;5028891;28;20040;-60
2022/09/16 13:45:32;;;;;;;2.38;0.43;;;;;;;;;;5024495;28;20167;-61
2022/09/16 13:47:59;;;;;;;2.40;0.70;;;;;;;;;;5025854;28;20025;-60
2022/09/16 13:50:26;;;;;;;4.43;0.35;;;;;;;;;;5027288;28;20421;-60
2022/09/16 13:52:52;;;;;;;7.55;0.80;;;;;;;;;;5021533;28;20030;-61
2022/09/16 13:55:20;;;;;;;2.00;0.63;;;;;;;;;;5031206;28;20064;-58
2022/09/16 13:57:55;;;;;;;4.25;0.82;;;;;;;;;;5029202;28;20029;-59
2022/09/16 14:00:22;;;;;;;1.20;0.40;;;;;;;;;;5027311;28;20044;-59
2022/09/16 14:02:58;;;;;;;2.20;0.47;;;;;;;;;;5024331;28;20025;-59
2022/09/16 14:05:29;;;;;;;5.93;0.52;;;;;;;;;;5024774;28;20511;-59
2022/09/16 14:07:59;;;;;;;17.10;1.10;;;;;;;;;;5023825;28;20481;-59
2022/09/16 14:10:36;;;;;;;3.88;0.60;;;;;;;;;;5030792;28;20025;-60
2022/09/16 14:13:10;;;;;;;5.68;0.40;;;;;;;;;;5025901;28;20026;-59
2022/09/16 14:15:40;;;;;;;3.40;0.70;;;;;;;;;;5030448;28;20041;-59
2022/09/16 14:18:07;;;;;;;3.15;0.65;;;;;;;;;;5031500;28;20125;-59
2022/09/16 14:20:34;;;;;;;4.35;0.50;;;;;;;;;;5025832;28;20029;-59
2022/09/16 14:23:05;;;;;;;4.35;0.57;;;;;;;;;;5022558;28;20049;-60
2022/09/16 14:25:35;;;;;;;3.70;0.57;;;;;;;;;;5032285;28;20377;-61
2022/09/16 14:28:08;;;;;;;1.92;0.63;;;;;;;;;;5034053;28;20504;-60
2022/09/16 14:30:34;;;;;;;;;;;;;;;;;;5034050;28;20507;-60
2022/09/16 14:33:01;;;;;;;2.92;0.60;;;;;;;;;;5033689;28;19944;-61
2022/09/16 14:35:27;;;;;;;4.75;0.52;;;;;;;;;;5031853;28;20079;-61
2022/09/16 14:37:54;;;;;;;3.92;0.40;;;;;;;;;;5033695;28;20037;-60
2022/09/16 14:40:22;;;;;;;2.53;0.77;;;;;;;;;;5031694;28;20069;-61
2022/09/16 14:42:50;;;;;;;6.57;1.05;;;;;;;;;;5026484;28;20532;-61
2022/09/16 14:45:16;;;;;;;3.88;0.60;;;;;;;;;;5027015;28;20045;-60
2022/09/16 14:47:43;;;;;;;2.10;0.43;;;;;;;;;;5028015;28;20534;-61
2022/09/16 14:50:18;;;;;;;2.75;0.30;;;;;;;;;;5033256;28;20524;-61
2022/09/16 14:52:58;;;;;;;2.75;0.50;;;;;;;;;;5027927;28;20100;-61
2022/09/16 14:55:26;;;;;;;5.43;0.77;;;;;;;;;;5031320;28;20018;-60
2022/09/16 14:57:52;;;;;;;3.55;0.60;;;;;;;;;;5012487;28;20099;-61